<?xml version="1.0" encoding="utf-8"?>
<gpx xmlns:xsi="http://www.w3.org/2001/XMLSchema-instance" xmlns:xsd="http://www.w3.org/2001/XMLSchema" version="1.1" creator="Shapelink.com" xmlns="http://www.topografix.com/GPX/1/1" xmlns:gpxtpx="http://www.garmin.com/xmlschemas/TrackPointExtension/v1">
  <metadata>
    <name>Övrigt 4.48 km, 2019-06-02</name>
    <desc></desc>
    <author><name>Marian Moron</name></author> 
    <time>2019-06-02T15:51:30Z</time>
  </metadata>
  <trk>
    <name>Övrigt 4.48 km, 2019-06-02</name>
    <trkseg>
      <trkpt lat="52.105954950948" lon="4.281639140516">
        <ele>2.6</ele>
        <time>2019-06-02T15:51:30Z</time>
      </trkpt>
      <trkpt lat="52.105910526878" lon="4.281681469111">
        <ele>4</ele>
        <time>2019-06-02T15:56:06Z</time>
      </trkpt>
      <trkpt lat="52.105953274568" lon="4.28151810588">
        <ele>0</ele>
        <time>2019-06-02T15:56:39Z</time>
      </trkpt>
      <trkpt lat="52.105985125788" lon="4.281388856982">
        <ele>0</ele>
        <time>2019-06-02T15:56:50Z</time>
      </trkpt>
      <trkpt lat="52.106103226759" lon="4.281152319764">
        <ele>0</ele>
        <time>2019-06-02T15:57:12Z</time>
      </trkpt>
      <trkpt lat="52.106145471535" lon="4.281033212965">
        <ele>0</ele>
        <time>2019-06-02T15:57:29Z</time>
      </trkpt>
      <trkpt lat="52.106178915316" lon="4.280716628602">
        <ele>7.6</ele>
        <time>2019-06-02T15:59:52Z</time>
      </trkpt>
      <trkpt lat="52.106226608327" lon="4.280413203822">
        <ele>3</ele>
        <time>2019-06-02T16:00:20Z</time>
      </trkpt>
      <trkpt lat="52.106207665233" lon="4.280223353787">
        <ele>1.2</ele>
        <time>2019-06-02T16:00:38Z</time>
      </trkpt>
      <trkpt lat="52.106327107308" lon="4.280020679445">
        <ele>0</ele>
        <time>2019-06-02T16:00:52Z</time>
      </trkpt>
      <trkpt lat="52.106350241352" lon="4.279776933793">
        <ele>2.4</ele>
        <time>2019-06-02T16:01:07Z</time>
      </trkpt>
      <trkpt lat="52.10631101406" lon="4.279713818086">
        <ele>1.6</ele>
        <time>2019-06-02T16:01:13Z</time>
      </trkpt>
      <trkpt lat="52.106203390464" lon="4.279488177338">
        <ele>3.6</ele>
        <time>2019-06-02T16:01:35Z</time>
      </trkpt>
      <trkpt lat="52.106022425243" lon="4.27925583107">
        <ele>5.6</ele>
        <time>2019-06-02T16:02:04Z</time>
      </trkpt>
      <trkpt lat="52.10583911309" lon="4.278564911053">
        <ele>14</ele>
        <time>2019-06-02T16:02:50Z</time>
      </trkpt>
      <trkpt lat="52.105744313801" lon="4.277831997717">
        <ele>18.8</ele>
        <time>2019-06-02T16:03:42Z</time>
      </trkpt>
      <trkpt lat="52.105739200842" lon="4.277814395727">
        <ele>18.4</ele>
        <time>2019-06-02T16:03:45Z</time>
      </trkpt>
      <trkpt lat="52.105581453484" lon="4.277611386109">
        <ele>9.4</ele>
        <time>2019-06-02T16:04:04Z</time>
      </trkpt>
      <trkpt lat="52.105417419701" lon="4.277145184831">
        <ele>7.8</ele>
        <time>2019-06-02T16:05:30Z</time>
      </trkpt>
      <trkpt lat="52.105392525458" lon="4.277116183457">
        <ele>10</ele>
        <time>2019-06-02T16:05:33Z</time>
      </trkpt>
      <trkpt lat="52.105337372556" lon="4.277062036383">
        <ele>13.2</ele>
        <time>2019-06-02T16:05:38Z</time>
      </trkpt>
      <trkpt lat="52.105191862772" lon="4.276461640886">
        <ele>11.4</ele>
        <time>2019-06-02T16:06:14Z</time>
      </trkpt>
      <trkpt lat="52.105044006056" lon="4.276112115656">
        <ele>11.8</ele>
        <time>2019-06-02T16:06:38Z</time>
      </trkpt>
      <trkpt lat="52.10482490319" lon="4.275465954985">
        <ele>1.6</ele>
        <time>2019-06-02T16:07:20Z</time>
      </trkpt>
      <trkpt lat="52.104872260925" lon="4.275290940913">
        <ele>0</ele>
        <time>2019-06-02T16:07:32Z</time>
      </trkpt>
      <trkpt lat="52.104923222877" lon="4.275222293152">
        <ele>0</ele>
        <time>2019-06-02T16:07:39Z</time>
      </trkpt>
      <trkpt lat="52.104937891202" lon="4.275197063633">
        <ele>0</ele>
        <time>2019-06-02T16:07:43Z</time>
      </trkpt>
      <trkpt lat="52.105075270543" lon="4.275404515658">
        <ele>0</ele>
        <time>2019-06-02T16:09:22Z</time>
      </trkpt>
      <trkpt lat="52.105022967487" lon="4.275245343377">
        <ele>0</ele>
        <time>2019-06-02T16:09:26Z</time>
      </trkpt>
      <trkpt lat="52.105160933561" lon="4.274966309926">
        <ele>0</ele>
        <time>2019-06-02T16:10:00Z</time>
      </trkpt>
      <trkpt lat="52.105415240407" lon="4.274701693343">
        <ele>0</ele>
        <time>2019-06-02T16:10:27Z</time>
      </trkpt>
      <trkpt lat="52.105428064714" lon="4.274671183227">
        <ele>0</ele>
        <time>2019-06-02T16:10:29Z</time>
      </trkpt>
      <trkpt lat="52.105439715555" lon="4.274647127174">
        <ele>0</ele>
        <time>2019-06-02T16:10:31Z</time>
      </trkpt>
      <trkpt lat="52.105427477981" lon="4.274527685099">
        <ele>0</ele>
        <time>2019-06-02T16:10:50Z</time>
      </trkpt>
      <trkpt lat="52.105504507642" lon="4.274499270458">
        <ele>1</ele>
        <time>2019-06-02T16:11:03Z</time>
      </trkpt>
      <trkpt lat="52.105896864381" lon="4.274147146839">
        <ele>0.8</ele>
        <time>2019-06-02T16:11:48Z</time>
      </trkpt>
      <trkpt lat="52.106246557249" lon="4.273693015497">
        <ele>0</ele>
        <time>2019-06-02T16:12:30Z</time>
      </trkpt>
      <trkpt lat="52.10652894346" lon="4.273135116233">
        <ele>0</ele>
        <time>2019-06-02T16:13:11Z</time>
      </trkpt>
      <trkpt lat="52.106738071865" lon="4.272594902778">
        <ele>5.6</ele>
        <time>2019-06-02T16:13:51Z</time>
      </trkpt>
      <trkpt lat="52.106768498162" lon="4.272527596121">
        <ele>8</ele>
        <time>2019-06-02T16:14:02Z</time>
      </trkpt>
      <trkpt lat="52.106703789894" lon="4.2724639775">
        <ele>4.8</ele>
        <time>2019-06-02T16:14:27Z</time>
      </trkpt>
      <trkpt lat="52.106804205056" lon="4.272424750208">
        <ele>3.8</ele>
        <time>2019-06-02T16:14:39Z</time>
      </trkpt>
      <trkpt lat="52.106919707638" lon="4.272154014838">
        <ele>0</ele>
        <time>2019-06-02T16:14:57Z</time>
      </trkpt>
      <trkpt lat="52.107300497355" lon="4.271746570679">
        <ele>8.2</ele>
        <time>2019-06-02T16:15:38Z</time>
      </trkpt>
      <trkpt lat="52.10734869328" lon="4.271716395839">
        <ele>8</ele>
        <time>2019-06-02T16:15:43Z</time>
      </trkpt>
      <trkpt lat="52.107353638601" lon="4.271705499369">
        <ele>6.2</ele>
        <time>2019-06-02T16:15:46Z</time>
      </trkpt>
      <trkpt lat="52.10740820477" lon="4.271631906287">
        <ele>6.4</ele>
        <time>2019-06-02T16:15:52Z</time>
      </trkpt>
      <trkpt lat="52.107485653526" lon="4.271531742582">
        <ele>5.2</ele>
        <time>2019-06-02T16:16:06Z</time>
      </trkpt>
      <trkpt lat="52.107538710953" lon="4.271489413987">
        <ele>3.2</ele>
        <time>2019-06-02T16:16:15Z</time>
      </trkpt>
      <trkpt lat="52.10756410811" lon="4.271552529694">
        <ele>3.2</ele>
        <time>2019-06-02T16:16:19Z</time>
      </trkpt>
      <trkpt lat="52.107606688162" lon="4.271592846633">
        <ele>3</ele>
        <time>2019-06-02T16:16:25Z</time>
      </trkpt>
      <trkpt lat="52.107777762741" lon="4.271787306713">
        <ele>4.4</ele>
        <time>2019-06-02T16:16:45Z</time>
      </trkpt>
      <trkpt lat="52.107805842106" lon="4.271770375275">
        <ele>1.6</ele>
        <time>2019-06-02T16:17:23Z</time>
      </trkpt>
      <trkpt lat="52.107973312468" lon="4.272230206309">
        <ele>4</ele>
        <time>2019-06-02T16:17:53Z</time>
      </trkpt>
      <trkpt lat="52.108031315216" lon="4.27245811017">
        <ele>1.2</ele>
        <time>2019-06-02T16:18:09Z</time>
      </trkpt>
      <trkpt lat="52.108074901096" lon="4.272636728459">
        <ele>1.6</ele>
        <time>2019-06-02T16:18:19Z</time>
      </trkpt>
      <trkpt lat="52.108106836135" lon="4.272744603512">
        <ele>0.4</ele>
        <time>2019-06-02T16:18:25Z</time>
      </trkpt>
      <trkpt lat="52.108316132178" lon="4.27336838451">
        <ele>0</ele>
        <time>2019-06-02T16:19:10Z</time>
      </trkpt>
      <trkpt lat="52.108313701427" lon="4.273388752527">
        <ele>0</ele>
        <time>2019-06-02T16:19:18Z</time>
      </trkpt>
      <trkpt lat="52.108291154116" lon="4.273568376644">
        <ele>20</ele>
        <time>2019-06-02T16:20:49Z</time>
      </trkpt>
      <trkpt lat="52.108346223199" lon="4.273650435445">
        <ele>23.4</ele>
        <time>2019-06-02T16:21:06Z</time>
      </trkpt>
      <trkpt lat="52.108411350562" lon="4.273654710214">
        <ele>12.6</ele>
        <time>2019-06-02T16:21:12Z</time>
      </trkpt>
      <trkpt lat="52.108545963876" lon="4.273802399292">
        <ele>0</ele>
        <time>2019-06-02T16:21:30Z</time>
      </trkpt>
      <trkpt lat="52.108660209173" lon="4.273724028527">
        <ele>0</ele>
        <time>2019-06-02T16:21:52Z</time>
      </trkpt>
      <trkpt lat="52.108802533835" lon="4.273794604125">
        <ele>0</ele>
        <time>2019-06-02T16:22:09Z</time>
      </trkpt>
      <trkpt lat="52.109150298866" lon="4.273872471976">
        <ele>0</ele>
        <time>2019-06-02T16:23:29Z</time>
      </trkpt>
      <trkpt lat="52.109141916966" lon="4.273884122817">
        <ele>0</ele>
        <time>2019-06-02T16:23:30Z</time>
      </trkpt>
      <trkpt lat="52.109120124026" lon="4.273952854397">
        <ele>0</ele>
        <time>2019-06-02T16:23:38Z</time>
      </trkpt>
      <trkpt lat="52.109233112038" lon="4.273754706281">
        <ele>0</ele>
        <time>2019-06-02T16:26:15Z</time>
      </trkpt>
      <trkpt lat="52.109239817558" lon="4.273710449849">
        <ele>0</ele>
        <time>2019-06-02T16:26:17Z</time>
      </trkpt>
      <trkpt lat="52.109290444234" lon="4.273569131015">
        <ele>0</ele>
        <time>2019-06-02T16:26:37Z</time>
      </trkpt>
      <trkpt lat="52.109335455037" lon="4.273387327604">
        <ele>0</ele>
        <time>2019-06-02T16:26:57Z</time>
      </trkpt>
      <trkpt lat="52.10935951109" lon="4.273322954612">
        <ele>0</ele>
        <time>2019-06-02T16:27:03Z</time>
      </trkpt>
      <trkpt lat="52.109388177188" lon="4.273215163378">
        <ele>0</ele>
        <time>2019-06-02T16:27:16Z</time>
      </trkpt>
      <trkpt lat="52.109397481097" lon="4.273189598583">
        <ele>0</ele>
        <time>2019-06-02T16:27:20Z</time>
      </trkpt>
      <trkpt lat="52.109398151649" lon="4.273168979109">
        <ele>0</ele>
        <time>2019-06-02T16:27:22Z</time>
      </trkpt>
      <trkpt lat="52.109444335918" lon="4.273009723009">
        <ele>0</ele>
        <time>2019-06-02T16:27:37Z</time>
      </trkpt>
      <trkpt lat="52.109447856316" lon="4.272971753002">
        <ele>0</ele>
        <time>2019-06-02T16:27:40Z</time>
      </trkpt>
      <trkpt lat="52.109472918197" lon="4.27283445748">
        <ele>0</ele>
        <time>2019-06-02T16:27:56Z</time>
      </trkpt>
      <trkpt lat="52.109529915117" lon="4.272580234453">
        <ele>0</ele>
        <time>2019-06-02T16:28:15Z</time>
      </trkpt>
      <trkpt lat="52.109576686119" lon="4.272463223129">
        <ele>0</ele>
        <time>2019-06-02T16:28:28Z</time>
      </trkpt>
      <trkpt lat="52.109613315022" lon="4.272167593516">
        <ele>0</ele>
        <time>2019-06-02T16:28:52Z</time>
      </trkpt>
      <trkpt lat="52.109614823764" lon="4.272064579965">
        <ele>0</ele>
        <time>2019-06-02T16:29:32Z</time>
      </trkpt>
      <trkpt lat="52.109621110189" lon="4.272006661036">
        <ele>0</ele>
        <time>2019-06-02T16:29:36Z</time>
      </trkpt>
      <trkpt lat="52.109634269772" lon="4.271932481221">
        <ele>0</ele>
        <time>2019-06-02T16:29:42Z</time>
      </trkpt>
      <trkpt lat="52.109634688867" lon="4.271894343576">
        <ele>0</ele>
        <time>2019-06-02T16:29:45Z</time>
      </trkpt>
      <trkpt lat="52.109652123219" lon="4.271838855398">
        <ele>0</ele>
        <time>2019-06-02T16:29:50Z</time>
      </trkpt>
      <trkpt lat="52.109713897822" lon="4.271600055067">
        <ele>0</ele>
        <time>2019-06-02T16:31:54Z</time>
      </trkpt>
      <trkpt lat="52.109728901423" lon="4.271675995081">
        <ele>0</ele>
        <time>2019-06-02T16:32:08Z</time>
      </trkpt>
      <trkpt lat="52.109660002205" lon="4.271595947936">
        <ele>0</ele>
        <time>2019-06-02T16:32:46Z</time>
      </trkpt>
      <trkpt lat="52.109686153733" lon="4.271711366699">
        <ele>0</ele>
        <time>2019-06-02T16:32:59Z</time>
      </trkpt>
      <trkpt lat="52.109665701897" lon="4.271830641136">
        <ele>0</ele>
        <time>2019-06-02T16:33:11Z</time>
      </trkpt>
      <trkpt lat="52.10964617207" lon="4.272073800055">
        <ele>0</ele>
        <time>2019-06-02T16:33:30Z</time>
      </trkpt>
      <trkpt lat="52.109665282802" lon="4.272148231327">
        <ele>0</ele>
        <time>2019-06-02T16:33:42Z</time>
      </trkpt>
      <trkpt lat="52.109703336628" lon="4.272259962054">
        <ele>0</ele>
        <time>2019-06-02T16:33:51Z</time>
      </trkpt>
      <trkpt lat="52.109678274747" lon="4.272330537652">
        <ele>0</ele>
        <time>2019-06-02T16:33:59Z</time>
      </trkpt>
      <trkpt lat="52.109646758803" lon="4.272360461035">
        <ele>0</ele>
        <time>2019-06-02T16:34:03Z</time>
      </trkpt>
      <trkpt lat="52.109624882044" lon="4.272422822371">
        <ele>0</ele>
        <time>2019-06-02T16:34:09Z</time>
      </trkpt>
      <trkpt lat="52.109625720234" lon="4.272464396595">
        <ele>0</ele>
        <time>2019-06-02T16:34:12Z</time>
      </trkpt>
      <trkpt lat="52.109619517628" lon="4.272508150113">
        <ele>0</ele>
        <time>2019-06-02T16:34:16Z</time>
      </trkpt>
      <trkpt lat="52.109607699149" lon="4.272602362669">
        <ele>0</ele>
        <time>2019-06-02T16:34:33Z</time>
      </trkpt>
      <trkpt lat="52.109612895927" lon="4.272692971008">
        <ele>0</ele>
        <time>2019-06-02T16:34:40Z</time>
      </trkpt>
      <trkpt lat="52.109611387185" lon="4.272775448904">
        <ele>0.2</ele>
        <time>2019-06-02T16:34:47Z</time>
      </trkpt>
      <trkpt lat="52.109619517628" lon="4.272879049188">
        <ele>0</ele>
        <time>2019-06-02T16:34:56Z</time>
      </trkpt>
      <trkpt lat="52.109590264797" lon="4.273004358593">
        <ele>0.4</ele>
        <time>2019-06-02T16:35:07Z</time>
      </trkpt>
      <trkpt lat="52.109514995335" lon="4.273221365984">
        <ele>0</ele>
        <time>2019-06-02T16:35:30Z</time>
      </trkpt>
      <trkpt lat="52.109504853236" lon="4.273287666813">
        <ele>0</ele>
        <time>2019-06-02T16:35:36Z</time>
      </trkpt>
      <trkpt lat="52.109510217652" lon="4.273431332579">
        <ele>0</ele>
        <time>2019-06-02T16:35:46Z</time>
      </trkpt>
      <trkpt lat="52.109535866266" lon="4.273612884533">
        <ele>0</ele>
        <time>2019-06-02T16:36:06Z</time>
      </trkpt>
      <trkpt lat="52.109556318102" lon="4.273626463211">
        <ele>0</ele>
        <time>2019-06-02T16:36:09Z</time>
      </trkpt>
      <trkpt lat="52.109569812961" lon="4.273651105997">
        <ele>0</ele>
        <time>2019-06-02T16:36:11Z</time>
      </trkpt>
      <trkpt lat="52.10960090981" lon="4.27385202014">
        <ele>0</ele>
        <time>2019-06-02T16:36:24Z</time>
      </trkpt>
      <trkpt lat="52.109603508199" lon="4.273916896046">
        <ele>1.4</ele>
        <time>2019-06-02T16:36:30Z</time>
      </trkpt>
      <trkpt lat="52.109603340561" lon="4.27399032149">
        <ele>1.8</ele>
        <time>2019-06-02T16:36:34Z</time>
      </trkpt>
      <trkpt lat="52.109606190407" lon="4.274022843262">
        <ele>2</ele>
        <time>2019-06-02T16:36:36Z</time>
      </trkpt>
      <trkpt lat="52.109638795998" lon="4.274102052217">
        <ele>0</ele>
        <time>2019-06-02T16:36:47Z</time>
      </trkpt>
      <trkpt lat="52.109675257263" lon="4.274098783276">
        <ele>0</ele>
        <time>2019-06-02T16:36:52Z</time>
      </trkpt>
      <trkpt lat="52.109694367995" lon="4.274100208199">
        <ele>0</ele>
        <time>2019-06-02T16:36:54Z</time>
      </trkpt>
      <trkpt lat="52.109744324119" lon="4.274108673918">
        <ele>0</ele>
        <time>2019-06-02T16:37:02Z</time>
      </trkpt>
      <trkpt lat="52.109864688203" lon="4.274161060793">
        <ele>0</ele>
        <time>2019-06-02T16:37:18Z</time>
      </trkpt>
      <trkpt lat="52.109917997087" lon="4.274176818765">
        <ele>0</ele>
        <time>2019-06-02T16:37:23Z</time>
      </trkpt>
      <trkpt lat="52.109946914642" lon="4.274183356647">
        <ele>0</ele>
        <time>2019-06-02T16:37:26Z</time>
      </trkpt>
      <trkpt lat="52.109972814713" lon="4.274189223977">
        <ele>0</ele>
        <time>2019-06-02T16:37:30Z</time>
      </trkpt>
      <trkpt lat="52.110013383109" lon="4.274221326654">
        <ele>0</ele>
        <time>2019-06-02T16:37:36Z</time>
      </trkpt>
      <trkpt lat="52.110099716679" lon="4.274305900025">
        <ele>0</ele>
        <time>2019-06-02T16:37:55Z</time>
      </trkpt>
      <trkpt lat="52.110116229022" lon="4.274322999101">
        <ele>0</ele>
        <time>2019-06-02T16:37:58Z</time>
      </trkpt>
      <trkpt lat="52.110133495736" lon="4.274338589435">
        <ele>0</ele>
        <time>2019-06-02T16:38:00Z</time>
      </trkpt>
      <trkpt lat="52.110157216513" lon="4.274377816727">
        <ele>0</ele>
        <time>2019-06-02T16:38:04Z</time>
      </trkpt>
      <trkpt lat="52.110175991969" lon="4.274387204455">
        <ele>0</ele>
        <time>2019-06-02T16:38:07Z</time>
      </trkpt>
      <trkpt lat="52.110213375243" lon="4.274426683204">
        <ele>0</ele>
        <time>2019-06-02T16:38:11Z</time>
      </trkpt>
      <trkpt lat="52.110302055745" lon="4.274505305426">
        <ele>0</ele>
        <time>2019-06-02T16:38:32Z</time>
      </trkpt>
      <trkpt lat="52.11037875013" lon="4.274629273727">
        <ele>0</ele>
        <time>2019-06-02T16:38:44Z</time>
      </trkpt>
      <trkpt lat="52.110471705401" lon="4.274772268941">
        <ele>0</ele>
        <time>2019-06-02T16:38:56Z</time>
      </trkpt>
      <trkpt lat="52.110525517199" lon="4.274842509263">
        <ele>0</ele>
        <time>2019-06-02T16:39:05Z</time>
      </trkpt>
      <trkpt lat="52.110578658445" lon="4.274878383795">
        <ele>0.2</ele>
        <time>2019-06-02T16:39:17Z</time>
      </trkpt>
      <trkpt lat="52.110598607367" lon="4.274870337171">
        <ele>0.2</ele>
        <time>2019-06-02T16:39:19Z</time>
      </trkpt>
      <trkpt lat="52.110635990641" lon="4.274828260033">
        <ele>0.4</ele>
        <time>2019-06-02T16:39:24Z</time>
      </trkpt>
      <trkpt lat="52.110665075834" lon="4.274808646387">
        <ele>0</ele>
        <time>2019-06-02T16:39:28Z</time>
      </trkpt>
      <trkpt lat="52.110723162401" lon="4.274877629424">
        <ele>0</ele>
        <time>2019-06-02T16:39:34Z</time>
      </trkpt>
      <trkpt lat="52.110770855412" lon="4.274934710163">
        <ele>0</ele>
        <time>2019-06-02T16:39:41Z</time>
      </trkpt>
      <trkpt lat="52.110849058539" lon="4.275097235204">
        <ele>0</ele>
        <time>2019-06-02T16:39:59Z</time>
      </trkpt>
      <trkpt lat="52.11087076766" lon="4.275160099454">
        <ele>0</ele>
        <time>2019-06-02T16:40:04Z</time>
      </trkpt>
      <trkpt lat="52.110890381306" lon="4.275247103576">
        <ele>0</ele>
        <time>2019-06-02T16:40:11Z</time>
      </trkpt>
      <trkpt lat="52.110923070716" lon="4.275318433545">
        <ele>0</ele>
        <time>2019-06-02T16:40:16Z</time>
      </trkpt>
      <trkpt lat="52.110976044324" lon="4.275419603078">
        <ele>0</ele>
        <time>2019-06-02T16:40:25Z</time>
      </trkpt>
      <trkpt lat="52.111022060955" lon="4.275480204215">
        <ele>0</ele>
        <time>2019-06-02T16:40:32Z</time>
      </trkpt>
      <trkpt lat="52.111032957425" lon="4.275505601372">
        <ele>0</ele>
        <time>2019-06-02T16:40:34Z</time>
      </trkpt>
      <trkpt lat="52.111062629351" lon="4.275763009521">
        <ele>0</ele>
        <time>2019-06-02T16:40:50Z</time>
      </trkpt>
      <trkpt lat="52.111045781732" lon="4.27579913551">
        <ele>0</ele>
        <time>2019-06-02T16:40:53Z</time>
      </trkpt>
      <trkpt lat="52.110970679908" lon="4.275942968914">
        <ele>0</ele>
        <time>2019-06-02T16:41:05Z</time>
      </trkpt>
      <trkpt lat="52.11093530829" lon="4.275996529255">
        <ele>0</ele>
        <time>2019-06-02T16:41:11Z</time>
      </trkpt>
      <trkpt lat="52.110907396563" lon="4.276087640508">
        <ele>0</ele>
        <time>2019-06-02T16:41:21Z</time>
      </trkpt>
      <trkpt lat="52.110894572256" lon="4.276115468416">
        <ele>0</ele>
        <time>2019-06-02T16:41:24Z</time>
      </trkpt>
      <trkpt lat="52.110767167376" lon="4.276257457802">
        <ele>0</ele>
        <time>2019-06-02T16:42:01Z</time>
      </trkpt>
      <trkpt lat="52.110739758563" lon="4.276324177726">
        <ele>3.4</ele>
        <time>2019-06-02T16:43:16Z</time>
      </trkpt>
      <trkpt lat="52.110743949513" lon="4.276319986776">
        <ele>2.6</ele>
        <time>2019-06-02T16:43:34Z</time>
      </trkpt>
      <trkpt lat="52.110716708338" lon="4.276288219375">
        <ele>2.4</ele>
        <time>2019-06-02T16:48:24Z</time>
      </trkpt>
      <trkpt lat="52.110663147997" lon="4.276270785023">
        <ele>3.4</ele>
        <time>2019-06-02T16:48:33Z</time>
      </trkpt>
      <trkpt lat="52.110564744491" lon="4.276147571093">
        <ele>2.2</ele>
        <time>2019-06-02T16:48:48Z</time>
      </trkpt>
      <trkpt lat="52.110197868728" lon="4.275715987062">
        <ele>0</ele>
        <time>2019-06-02T16:49:36Z</time>
      </trkpt>
      <trkpt lat="52.110129556243" lon="4.275647171663">
        <ele>1.6</ele>
        <time>2019-06-02T16:49:46Z</time>
      </trkpt>
      <trkpt lat="52.110165766051" lon="4.275490346314">
        <ele>0</ele>
        <time>2019-06-02T16:50:00Z</time>
      </trkpt>
      <trkpt lat="52.110126706397" lon="4.275186921534">
        <ele>0</ele>
        <time>2019-06-02T16:50:57Z</time>
      </trkpt>
      <trkpt lat="52.110100219593" lon="4.275155573228">
        <ele>0</ele>
        <time>2019-06-02T16:51:01Z</time>
      </trkpt>
      <trkpt lat="52.109958146388" lon="4.275000172802">
        <ele>0</ele>
        <time>2019-06-02T16:51:19Z</time>
      </trkpt>
      <trkpt lat="52.109899389269" lon="4.27495004904">
        <ele>0</ele>
        <time>2019-06-02T16:51:26Z</time>
      </trkpt>
      <trkpt lat="52.109487921798" lon="4.274642684767">
        <ele>0</ele>
        <time>2019-06-02T16:52:15Z</time>
      </trkpt>
      <trkpt lat="52.109075699956" lon="4.274355269416">
        <ele>0</ele>
        <time>2019-06-02T16:53:02Z</time>
      </trkpt>
      <trkpt lat="52.109018786855" lon="4.274314533382">
        <ele>0</ele>
        <time>2019-06-02T16:53:08Z</time>
      </trkpt>
      <trkpt lat="52.108725336536" lon="4.274046396401">
        <ele>0</ele>
        <time>2019-06-02T16:53:40Z</time>
      </trkpt>
      <trkpt lat="52.108485781834" lon="4.273802818387">
        <ele>0</ele>
        <time>2019-06-02T16:54:08Z</time>
      </trkpt>
      <trkpt lat="52.108283610406" lon="4.273486485481">
        <ele>12.8</ele>
        <time>2019-06-02T16:54:38Z</time>
      </trkpt>
      <trkpt lat="52.108230636798" lon="4.273401660653">
        <ele>16.2</ele>
        <time>2019-06-02T16:54:45Z</time>
      </trkpt>
      <trkpt lat="52.10813323912" lon="4.273177863923">
        <ele>10</ele>
        <time>2019-06-02T16:55:02Z</time>
      </trkpt>
      <trkpt lat="52.10809552057" lon="4.272949540967">
        <ele>8.4</ele>
        <time>2019-06-02T16:55:16Z</time>
      </trkpt>
      <trkpt lat="52.108053862527" lon="4.272803192993">
        <ele>6.8</ele>
        <time>2019-06-02T16:55:26Z</time>
      </trkpt>
      <trkpt lat="52.107854457126" lon="4.272333387498">
        <ele>3.8</ele>
        <time>2019-06-02T16:56:00Z</time>
      </trkpt>
      <trkpt lat="52.107788575392" lon="4.272204892971">
        <ele>4</ele>
        <time>2019-06-02T16:56:11Z</time>
      </trkpt>
      <trkpt lat="52.107524880818" lon="4.271675156891">
        <ele>4</ele>
        <time>2019-06-02T16:56:50Z</time>
      </trkpt>
      <trkpt lat="52.107231849594" lon="4.271115078333">
        <ele>3</ele>
        <time>2019-06-02T16:57:36Z</time>
      </trkpt>
      <trkpt lat="52.107050465278" lon="4.270799499798">
        <ele>4.2</ele>
        <time>2019-06-02T16:58:03Z</time>
      </trkpt>
      <trkpt lat="52.106875283568" lon="4.27044645417">
        <ele>4.6</ele>
        <time>2019-06-02T16:58:31Z</time>
      </trkpt>
      <trkpt lat="52.106588035855" lon="4.26998461148">
        <ele>1.6</ele>
        <time>2019-06-02T16:59:10Z</time>
      </trkpt>
      <trkpt lat="52.106551909866" lon="4.269962483264">
        <ele>0.8</ele>
        <time>2019-06-02T16:59:24Z</time>
      </trkpt>
      <trkpt lat="52.106461385346" lon="4.269916634271">
        <ele>0.2</ele>
        <time>2019-06-02T16:59:33Z</time>
      </trkpt>
      <trkpt lat="52.106368765351" lon="4.269769280469">
        <ele>0.6</ele>
        <time>2019-06-02T17:00:08Z</time>
      </trkpt>
      <trkpt lat="52.106450656514" lon="4.269967680042">
        <ele>1.2</ele>
        <time>2019-06-02T17:00:23Z</time>
      </trkpt>
      <trkpt lat="52.106526596528" lon="4.270054265069">
        <ele>2</ele>
        <time>2019-06-02T17:00:33Z</time>
      </trkpt>
      <trkpt lat="52.106574708634" lon="4.270108076867">
        <ele>2.4</ele>
        <time>2019-06-02T17:00:41Z</time>
      </trkpt>
      <trkpt lat="52.106568589847" lon="4.270193404609">
        <ele>2.2</ele>
        <time>2019-06-02T17:00:54Z</time>
      </trkpt>
      <trkpt lat="52.106558447748" lon="4.270408232706">
        <ele>1.6</ele>
        <time>2019-06-02T17:01:10Z</time>
      </trkpt>
      <trkpt lat="52.106577726118" lon="4.270445448342">
        <ele>1.2</ele>
        <time>2019-06-02T17:01:13Z</time>
      </trkpt>
      <trkpt lat="52.106713848174" lon="4.27079514121">
        <ele>0</ele>
        <time>2019-06-02T17:01:36Z</time>
      </trkpt>
      <trkpt lat="52.106771431827" lon="4.270890862508">
        <ele>0</ele>
        <time>2019-06-02T17:01:45Z</time>
      </trkpt>
      <trkpt lat="52.106806635807" lon="4.270946685962">
        <ele>0</ele>
        <time>2019-06-02T17:03:59Z</time>
      </trkpt>
      <trkpt lat="52.106815520621" lon="4.271051459712">
        <ele>0</ele>
        <time>2019-06-02T17:04:15Z</time>
      </trkpt>
      <trkpt lat="52.106945440071" lon="4.271232005838">
        <ele>1.8</ele>
        <time>2019-06-02T17:04:35Z</time>
      </trkpt>
      <trkpt lat="52.107077287358" lon="4.271388076816">
        <ele>0.8</ele>
        <time>2019-06-02T17:04:50Z</time>
      </trkpt>
      <trkpt lat="52.107123136351" lon="4.271500645733">
        <ele>0.8</ele>
        <time>2019-06-02T17:04:58Z</time>
      </trkpt>
      <trkpt lat="52.10724140496" lon="4.271749336706">
        <ele>0</ele>
        <time>2019-06-02T17:05:16Z</time>
      </trkpt>
      <trkpt lat="52.107175355588" lon="4.271935666343">
        <ele>0</ele>
        <time>2019-06-02T17:05:29Z</time>
      </trkpt>
      <trkpt lat="52.107008136683" lon="4.272239929313">
        <ele>0</ele>
        <time>2019-06-02T17:05:55Z</time>
      </trkpt>
      <trkpt lat="52.106675123796" lon="4.272664472548">
        <ele>0</ele>
        <time>2019-06-02T17:06:39Z</time>
      </trkpt>
      <trkpt lat="52.106605051112" lon="4.27289648354">
        <ele>0</ele>
        <time>2019-06-02T17:06:54Z</time>
      </trkpt>
      <trkpt lat="52.106597926497" lon="4.272938812135">
        <ele>0</ele>
        <time>2019-06-02T17:06:57Z</time>
      </trkpt>
      <trkpt lat="52.106577139385" lon="4.272995306141">
        <ele>0</ele>
        <time>2019-06-02T17:07:01Z</time>
      </trkpt>
      <trkpt lat="52.106408663195" lon="4.273306777545">
        <ele>0</ele>
        <time>2019-06-02T17:07:30Z</time>
      </trkpt>
      <trkpt lat="52.106077829602" lon="4.27379334684">
        <ele>0</ele>
        <time>2019-06-02T17:08:15Z</time>
      </trkpt>
      <trkpt lat="52.105731154218" lon="4.274261978869">
        <ele>0</ele>
        <time>2019-06-02T17:09:06Z</time>
      </trkpt>
      <trkpt lat="52.105375342563" lon="4.274689288131">
        <ele>0</ele>
        <time>2019-06-02T17:10:05Z</time>
      </trkpt>
      <trkpt lat="52.105353298166" lon="4.274719965885">
        <ele>0</ele>
        <time>2019-06-02T17:10:08Z</time>
      </trkpt>
      <trkpt lat="52.104986757679" lon="4.275161859653">
        <ele>0</ele>
        <time>2019-06-02T17:11:02Z</time>
      </trkpt>
      <trkpt lat="52.10487016545" lon="4.275633928261">
        <ele>0</ele>
        <time>2019-06-02T17:12:09Z</time>
      </trkpt>
      <trkpt lat="52.104961192884" lon="4.275912710255">
        <ele>3.4</ele>
        <time>2019-06-02T17:12:32Z</time>
      </trkpt>
      <trkpt lat="52.10518700127" lon="4.276336666757">
        <ele>0</ele>
        <time>2019-06-02T17:13:08Z</time>
      </trkpt>
      <trkpt lat="52.105237125032" lon="4.276634224207">
        <ele>0.2</ele>
        <time>2019-06-02T17:13:38Z</time>
      </trkpt>
      <trkpt lat="52.105346844103" lon="4.277121883149">
        <ele>6.6</ele>
        <time>2019-06-02T17:14:48Z</time>
      </trkpt>
      <trkpt lat="52.105191862772" lon="4.277112327783">
        <ele>11.6</ele>
        <time>2019-06-02T17:15:04Z</time>
      </trkpt>
      <trkpt lat="52.104732199376" lon="4.277026413308">
        <ele>3.6</ele>
        <time>2019-06-02T17:15:52Z</time>
      </trkpt>
      <trkpt lat="52.104287791038" lon="4.276925411413">
        <ele>6</ele>
        <time>2019-06-02T17:16:41Z</time>
      </trkpt>
      <trkpt lat="52.103846484003" lon="4.27685357853">
        <ele>10</ele>
        <time>2019-06-02T17:17:30Z</time>
      </trkpt>
      <trkpt lat="52.103860817052" lon="4.276584770997">
        <ele>8.8</ele>
        <time>2019-06-02T17:17:45Z</time>
      </trkpt>
      <trkpt lat="52.10412501454" lon="4.276101135367">
        <ele>5.4</ele>
        <time>2019-06-02T17:18:25Z</time>
      </trkpt>
      <trkpt lat="52.104140353417" lon="4.276064506464">
        <ele>5.2</ele>
        <time>2019-06-02T17:18:29Z</time>
      </trkpt>
      <trkpt lat="52.104011439795" lon="4.276265336788">
        <ele>4.4</ele>
        <time>2019-06-02T17:35:24Z</time>
      </trkpt>
      <trkpt lat="52.104020659885" lon="4.276729107315">
        <ele>8.8</ele>
        <time>2019-06-02T17:36:06Z</time>
      </trkpt>
      <trkpt lat="52.10435300222" lon="4.276967237094">
        <ele>4.4</ele>
        <time>2019-06-02T17:36:57Z</time>
      </trkpt>
      <trkpt lat="52.104590880542" lon="4.276915939866">
        <ele>2.8</ele>
        <time>2019-06-02T17:38:06Z</time>
      </trkpt>
      <trkpt lat="52.104814593453" lon="4.276989784405">
        <ele>1</ele>
        <time>2019-06-02T17:38:52Z</time>
      </trkpt>
      <trkpt lat="52.105237795584" lon="4.277201259742">
        <ele>1.6</ele>
        <time>2019-06-02T17:39:34Z</time>
      </trkpt>
      <trkpt lat="52.105482630883" lon="4.27741432764">
        <ele>4</ele>
        <time>2019-06-02T17:40:09Z</time>
      </trkpt>
      <trkpt lat="52.105536107405" lon="4.277546929298">
        <ele>2.8</ele>
        <time>2019-06-02T17:40:15Z</time>
      </trkpt>
      <trkpt lat="52.105563683856" lon="4.277577858509">
        <ele>2.4</ele>
        <time>2019-06-02T17:40:19Z</time>
      </trkpt>
      <trkpt lat="52.10580223273" lon="4.278199376394">
        <ele>0</ele>
        <time>2019-06-02T17:41:02Z</time>
      </trkpt>
      <trkpt lat="52.106008343651" lon="4.278869676937">
        <ele>0</ele>
        <time>2019-06-02T17:41:46Z</time>
      </trkpt>
      <trkpt lat="52.106174808185" lon="4.279462361086">
        <ele>3.2</ele>
        <time>2019-06-02T17:42:23Z</time>
      </trkpt>
      <trkpt lat="52.106339763977" lon="4.279933172409">
        <ele>0</ele>
        <time>2019-06-02T17:42:58Z</time>
      </trkpt>
      <trkpt lat="52.106324173643" lon="4.279994360279">
        <ele>0</ele>
        <time>2019-06-02T17:43:02Z</time>
      </trkpt>
      <trkpt lat="52.106303302712" lon="4.280031575915">
        <ele>0</ele>
        <time>2019-06-02T17:43:05Z</time>
      </trkpt>
      <trkpt lat="52.106307409843" lon="4.280094523984">
        <ele>0</ele>
        <time>2019-06-02T17:43:10Z</time>
      </trkpt>
      <trkpt lat="52.106251586389" lon="4.280241207234">
        <ele>0</ele>
        <time>2019-06-02T17:43:22Z</time>
      </trkpt>
      <trkpt lat="52.106120577292" lon="4.280876806711">
        <ele>6.6</ele>
        <time>2019-06-02T17:44:04Z</time>
      </trkpt>
      <trkpt lat="52.106100879827" lon="4.280944197187">
        <ele>6.2</ele>
        <time>2019-06-02T17:44:09Z</time>
      </trkpt>
      <trkpt lat="52.105863755876" lon="4.281450296309">
        <ele>0</ele>
        <time>2019-06-02T17:44:48Z</time>
      </trkpt>
      <trkpt lat="52.105859732564" lon="4.281556830258">
        <ele>0</ele>
        <time>2019-06-02T17:44:55Z</time>
      </trkpt>
      <trkpt lat="52.105853781415" lon="4.281581221587">
        <ele>0</ele>
        <time>2019-06-02T17:44:57Z</time>
      </trkpt>
      <trkpt lat="52.105825031498" lon="4.281815495692">
        <ele>0</ele>
        <time>2019-06-02T17:47:45Z</time>
      </trkpt>
      <trkpt lat="52.105857469451" lon="4.281717762738">
        <ele>0</ele>
        <time>2019-06-02T17:48:09Z</time>
      </trkpt>
      <trkpt lat="52.105877837468" lon="4.281647522416">
        <ele>0</ele>
        <time>2019-06-02T17:48:15Z</time>
      </trkpt>
      <trkpt lat="52.105890661775" lon="4.281588010926">
        <ele>0</ele>
        <time>2019-06-02T17:48:22Z</time>
      </trkpt>
    </trkseg>
  </trk>
</gpx>